sensor_id;sensor_type;location;lat;lon;timestamp;P1;durP1;ratioP1;P2;durP2;ratioP2
25962;SDS011;13760;52.588;13.406;2023-06-19T00:00:51;13.73;;;11.18;;
25962;SDS011;13760;52.588;13.406;2023-06-19T00:03:17;15.18;;;11.65;;
25962;SDS011;13760;52.588;13.406;2023-06-19T00:05:42;13.07;;;11.70;;
25962;SDS011;13760;52.588;13.406;2023-06-19T00:08:08;14.60;;;11.50;;
25962;SDS011;13760;52.588;13.406;2023-06-19T00:10:45;13.15;;;11.75;;
25962;SDS011;13760;52.588;13.406;2023-06-19T00:13:12;15.52;;;12.10;;
25962;SDS011;13760;52.588;13.406;2023-06-19T00:15:38;12.80;;;11.50;;
25962;SDS011;13760;52.588;13.406;2023-06-19T00:18:04;12.98;;;11.55;;
25962;SDS011;13760;52.588;13.406;2023-06-19T00:20:31;13.00;;;11.38;;
25962;SDS011;13760;52.588;13.406;2023-06-19T00:22:57;12.48;;;11.10;;
25962;SDS011;13760;52.588;13.406;2023-06-19T00:25:23;13.27;;;11.98;;
25962;SDS011;13760;52.588;13.406;2023-06-19T00:27:48;14.05;;;11.35;;
25962;SDS011;13760;52.588;13.406;2023-06-19T00:30:14;12.77;;;11.50;;
25962;SDS011;13760;52.588;13.406;2023-06-19T00:32:40;12.80;;;11.50;;
25962;SDS011;13760;52.588;13.406;2023-06-19T00:35:14;13.40;;;12.07;;
25962;SDS011;13760;52.588;13.406;2023-06-19T00:37:41;13.55;;;12.10;;
25962;SDS011;13760;52.588;13.406;2023-06-19T00:40:26;13.23;;;11.85;;
25962;SDS011;13760;52.588;13.406;2023-06-19T00:42:53;12.40;;;11.07;;
25962;SDS011;13760;52.588;13.406;2023-06-19T00:45:19;13.75;;;11.65;;
25962;SDS011;13760;52.588;13.406;2023-06-19T00:47:45;13.32;;;11.77;;
25962;SDS011;13760;52.588;13.406;2023-06-19T00:50:11;12.55;;;11.23;;
25962;SDS011;13760;52.588;13.406;2023-06-19T00:52:37;15.50;;;11.60;;
25962;SDS011;13760;52.588;13.406;2023-06-19T00:55:03;14.15;;;12.65;;
25962;SDS011;13760;52.588;13.406;2023-06-19T00:57:30;13.35;;;11.95;;
25962;SDS011;13760;52.588;13.406;2023-06-19T00:59:57;13.48;;;12.20;;
25962;SDS011;13760;52.588;13.406;2023-06-19T01:02:23;13.60;;;12.15;;
25962;SDS011;13760;52.588;13.406;2023-06-19T01:04:50;14.38;;;12.98;;
25962;SDS011;13760;52.588;13.406;2023-06-19T01:07:16;16.15;;;12.80;;
25962;SDS011;13760;52.588;13.406;2023-06-19T01:09:56;13.68;;;12.27;;
25962;SDS011;13760;52.588;13.406;2023-06-19T01:14:59;13.85;;;12.63;;
25962;SDS011;13760;52.588;13.406;2023-06-19T01:17:28;13.10;;;11.90;;
25962;SDS011;13760;52.588;13.406;2023-06-19T01:19:55;13.98;;;12.57;;
25962;SDS011;13760;52.588;13.406;2023-06-19T01:22:22;13.20;;;11.93;;
25962;SDS011;13760;52.588;13.406;2023-06-19T01:24:54;13.85;;;12.00;;
25962;SDS011;13760;52.588;13.406;2023-06-19T01:27:20;15.57;;;12.65;;
25962;SDS011;13760;52.588;13.406;2023-06-19T01:29:50;14.48;;;13.00;;
25962;SDS011;13760;52.588;13.406;2023-06-19T01:32:19;13.85;;;12.43;;
25962;SDS011;13760;52.588;13.406;2023-06-19T01:34:50;14.73;;;13.23;;
25962;SDS011;13760;52.588;13.406;2023-06-19T01:37:19;14.13;;;12.75;;
25962;SDS011;13760;52.588;13.406;2023-06-19T01:39:45;14.35;;;12.85;;
25962;SDS011;13760;52.588;13.406;2023-06-19T01:42:12;14.55;;;13.15;;
25962;SDS011;13760;52.588;13.406;2023-06-19T01:44:39;13.43;;;12.18;;
25962;SDS011;13760;52.588;13.406;2023-06-19T01:47:09;13.95;;;12.55;;
25962;SDS011;13760;52.588;13.406;2023-06-19T01:49:36;14.07;;;12.68;;
25962;SDS011;13760;52.588;13.406;2023-06-19T01:52:01;13.07;;;11.88;;
25962;SDS011;13760;52.588;13.406;2023-06-19T01:54:27;14.02;;;12.73;;
25962;SDS011;13760;52.588;13.406;2023-06-19T01:56:53;13.40;;;12.20;;
25962;SDS011;13760;52.588;13.406;2023-06-19T01:59:18;14.52;;;12.90;;
25962;SDS011;13760;52.588;13.406;2023-06-19T02:01:44;15.15;;;13.52;;
25962;SDS011;13760;52.588;13.406;2023-06-19T02:04:10;13.70;;;12.38;;
25962;SDS011;13760;52.588;13.406;2023-06-19T02:06:35;14.23;;;12.75;;
25962;SDS011;13760;52.588;13.406;2023-06-19T02:09:01;13.68;;;12.30;;
25962;SDS011;13760;52.588;13.406;2023-06-19T02:11:26;13.48;;;12.27;;
25962;SDS011;13760;52.588;13.406;2023-06-19T02:13:52;13.52;;;12.23;;
25962;SDS011;13760;52.588;13.406;2023-06-19T02:16:17;14.85;;;13.43;;
25962;SDS011;13760;52.588;13.406;2023-06-19T02:18:43;14.80;;;13.40;;
25962;SDS011;13760;52.588;13.406;2023-06-19T02:21:08;14.00;;;12.70;;
25962;SDS011;13760;52.588;13.406;2023-06-19T02:23:34;14.82;;;13.43;;
25962;SDS011;13760;52.588;13.406;2023-06-19T02:25:59;15.15;;;13.07;;
25962;SDS011;13760;52.588;13.406;2023-06-19T02:28:25;14.63;;;13.23;;
25962;SDS011;13760;52.588;13.406;2023-06-19T02:30:52;14.45;;;13.05;;
25962;SDS011;13760;52.588;13.406;2023-06-19T02:33:18;15.00;;;13.35;;
25962;SDS011;13760;52.588;13.406;2023-06-19T02:35:44;14.55;;;13.15;;
25962;SDS011;13760;52.588;13.406;2023-06-19T02:38:09;14.07;;;12.68;;
25962;SDS011;13760;52.588;13.406;2023-06-19T02:40:37;15.38;;;13.80;;
25962;SDS011;13760;52.588;13.406;2023-06-19T02:43:03;14.73;;;13.32;;
25962;SDS011;13760;52.588;13.406;2023-06-19T02:45:28;14.05;;;12.75;;
25962;SDS011;13760;52.588;13.406;2023-06-19T02:47:54;14.63;;;13.23;;
25962;SDS011;13760;52.588;13.406;2023-06-19T02:50:19;15.73;;;13.60;;
25962;SDS011;13760;52.588;13.406;2023-06-19T02:52:45;14.82;;;13.43;;
25962;SDS011;13760;52.588;13.406;2023-06-19T02:55:10;14.70;;;13.18;;
25962;SDS011;13760;52.588;13.406;2023-06-19T02:57:36;15.02;;;13.50;;
25962;SDS011;13760;52.588;13.406;2023-06-19T03:00:02;14.70;;;13.30;;
25962;SDS011;13760;52.588;13.406;2023-06-19T03:02:30;15.52;;;14.10;;
25962;SDS011;13760;52.588;13.406;2023-06-19T03:04:56;15.57;;;13.95;;
25962;SDS011;13760;52.588;13.406;2023-06-19T03:07:22;14.80;;;13.40;;
25962;SDS011;13760;52.588;13.406;2023-06-19T03:09:47;15.00;;;13.18;;
25962;SDS011;13760;52.588;13.406;2023-06-19T03:12:13;14.90;;;13.50;;
25962;SDS011;13760;52.588;13.406;2023-06-19T03:14:38;14.25;;;12.95;;
25962;SDS011;13760;52.588;13.406;2023-06-19T03:17:05;16.13;;;13.40;;
25962;SDS011;13760;52.588;13.406;2023-06-19T03:19:30;14.88;;;13.48;;
25962;SDS011;13760;52.588;13.406;2023-06-19T03:21:56;15.93;;;13.60;;
25962;SDS011;13760;52.588;13.406;2023-06-19T03:24:21;14.98;;;13.20;;
25962;SDS011;13760;52.588;13.406;2023-06-19T03:26:47;18.60;;;13.27;;
25962;SDS011;13760;52.588;13.406;2023-06-19T03:29:12;15.88;;;13.98;;
25962;SDS011;13760;52.588;13.406;2023-06-19T03:31:38;14.85;;;13.35;;
25962;SDS011;13760;52.588;13.406;2023-06-19T03:34:04;16.00;;;14.40;;
25962;SDS011;13760;52.588;13.406;2023-06-19T03:36:30;15.73;;;14.15;;
25962;SDS011;13760;52.588;13.406;2023-06-19T03:38:56;14.98;;;13.63;;
25962;SDS011;13760;52.588;13.406;2023-06-19T03:41:21;16.58;;;14.27;;
25962;SDS011;13760;52.588;13.406;2023-06-19T03:43:47;15.18;;;13.32;;
25962;SDS011;13760;52.588;13.406;2023-06-19T03:46:12;15.48;;;13.85;;
25962;SDS011;13760;52.588;13.406;2023-06-19T03:48:38;14.73;;;13.43;;
25962;SDS011;13760;52.588;13.406;2023-06-19T03:51:03;15.73;;;14.23;;
25962;SDS011;13760;52.588;13.406;2023-06-19T03:53:29;15.57;;;14.13;;
25962;SDS011;13760;52.588;13.406;2023-06-19T03:55:54;17.98;;;13.90;;
25962;SDS011;13760;52.588;13.406;2023-06-19T03:58:20;15.98;;;14.27;;
25962;SDS011;13760;52.588;13.406;2023-06-19T04:00:45;15.52;;;14.07;;
25962;SDS011;13760;52.588;13.406;2023-06-19T04:03:11;14.57;;;13.27;;
25962;SDS011;13760;52.588;13.406;2023-06-19T04:05:37;15.63;;;14.15;;
25962;SDS011;13760;52.588;13.406;2023-06-19T04:08:03;15.18;;;13.77;;
25962;SDS011;13760;52.588;13.406;2023-06-19T04:10:29;14.60;;;13.15;;
25962;SDS011;13760;52.588;13.406;2023-06-19T04:12:55;14.48;;;13.15;;
25962;SDS011;13760;52.588;13.406;2023-06-19T04:15:20;15.48;;;13.88;;
25962;SDS011;13760;52.588;13.406;2023-06-19T04:17:46;13.90;;;12.60;;
25962;SDS011;13760;52.588;13.406;2023-06-19T04:20:12;17.00;;;13.30;;
25962;SDS011;13760;52.588;13.406;2023-06-19T04:22:38;14.93;;;13.02;;
25962;SDS011;13760;52.588;13.406;2023-06-19T04:25:08;14.30;;;12.90;;
25962;SDS011;13760;52.588;13.406;2023-06-19T04:27:35;15.55;;;13.93;;
25962;SDS011;13760;52.588;13.406;2023-06-19T04:30:04;16.20;;;13.55;;
25962;SDS011;13760;52.588;13.406;2023-06-19T04:32:31;15.52;;;14.05;;
25962;SDS011;13760;52.588;13.406;2023-06-19T04:34:57;15.13;;;13.63;;
25962;SDS011;13760;52.588;13.406;2023-06-19T04:37:23;16.00;;;14.40;;
25962;SDS011;13760;52.588;13.406;2023-06-19T04:39:48;15.38;;;13.88;;
25962;SDS011;13760;52.588;13.406;2023-06-19T04:42:15;16.52;;;14.77;;
25962;SDS011;13760;52.588;13.406;2023-06-19T04:47:14;16.00;;;14.35;;
25962;SDS011;13760;52.588;13.406;2023-06-19T04:49:41;15.20;;;13.80;;
25962;SDS011;13760;52.588;13.406;2023-06-19T04:52:07;16.75;;;15.05;;
25962;SDS011;13760;52.588;13.406;2023-06-19T04:54:32;15.23;;;13.82;;
25962;SDS011;13760;52.588;13.406;2023-06-19T04:56:58;16.70;;;14.50;;
25962;SDS011;13760;52.588;13.406;2023-06-19T04:59:23;16.90;;;15.20;;
25962;SDS011;13760;52.588;13.406;2023-06-19T05:01:52;16.88;;;14.25;;
25962;SDS011;13760;52.588;13.406;2023-06-19T05:04:22;15.43;;;13.82;;
25962;SDS011;13760;52.588;13.406;2023-06-19T05:06:53;15.75;;;14.25;;
25962;SDS011;13760;52.588;13.406;2023-06-19T05:09:20;15.63;;;14.13;;
25962;SDS011;13760;52.588;13.406;2023-06-19T05:11:52;14.55;;;13.25;;
25962;SDS011;13760;52.588;13.406;2023-06-19T05:14:17;15.50;;;14.00;;
25962;SDS011;13760;52.588;13.406;2023-06-19T05:16:43;16.85;;;13.63;;
25962;SDS011;13760;52.588;13.406;2023-06-19T05:19:09;16.65;;;14.82;;
25962;SDS011;13760;52.588;13.406;2023-06-19T05:21:34;15.63;;;14.05;;
25962;SDS011;13760;52.588;13.406;2023-06-19T05:24:00;16.00;;;14.30;;
25962;SDS011;13760;52.588;13.406;2023-06-19T05:26:26;16.35;;;14.70;;
25962;SDS011;13760;52.588;13.406;2023-06-19T05:28:52;15.63;;;13.63;;
25962;SDS011;13760;52.588;13.406;2023-06-19T05:31:17;14.98;;;13.50;;
25962;SDS011;13760;52.588;13.406;2023-06-19T05:33:43;16.48;;;14.45;;
25962;SDS011;13760;52.588;13.406;2023-06-19T05:36:10;16.05;;;14.45;;
25962;SDS011;13760;52.588;13.406;2023-06-19T05:38:36;15.23;;;13.73;;
25962;SDS011;13760;52.588;13.406;2023-06-19T05:41:02;17.58;;;14.10;;
25962;SDS011;13760;52.588;13.406;2023-06-19T05:43:28;17.50;;;14.70;;
25962;SDS011;13760;52.588;13.406;2023-06-19T05:45:54;15.45;;;14.05;;
25962;SDS011;13760;52.588;13.406;2023-06-19T05:48:27;15.20;;;13.57;;
25962;SDS011;13760;52.588;13.406;2023-06-19T05:50:52;16.65;;;13.88;;
25962;SDS011;13760;52.588;13.406;2023-06-19T05:53:18;17.80;;;14.40;;
25962;SDS011;13760;52.588;13.406;2023-06-19T05:55:50;21.25;;;15.27;;
25962;SDS011;13760;52.588;13.406;2023-06-19T05:58:16;16.05;;;14.43;;
25962;SDS011;13760;52.588;13.406;2023-06-19T06:00:45;18.95;;;15.05;;
25962;SDS011;13760;52.588;13.406;2023-06-19T06:03:11;20.95;;;15.30;;
25962;SDS011;13760;52.588;13.406;2023-06-19T06:05:38;20.33;;;14.68;;
25962;SDS011;13760;52.588;13.406;2023-06-19T06:08:03;19.25;;;16.33;;
25962;SDS011;13760;52.588;13.406;2023-06-19T06:10:29;19.52;;;15.55;;
25962;SDS011;13760;52.588;13.406;2023-06-19T06:12:55;23.08;;;16.95;;
25962;SDS011;13760;52.588;13.406;2023-06-19T06:15:21;17.73;;;15.73;;
25962;SDS011;13760;52.588;13.406;2023-06-19T06:17:46;17.20;;;15.50;;
25962;SDS011;13760;52.588;13.406;2023-06-19T06:20:12;20.73;;;17.02;;
25962;SDS011;13760;52.588;13.406;2023-06-19T06:22:38;23.92;;;15.80;;
25962;SDS011;13760;52.588;13.406;2023-06-19T06:25:04;19.40;;;16.50;;
25962;SDS011;13760;52.588;13.406;2023-06-19T06:27:30;22.05;;;16.65;;
25962;SDS011;13760;52.588;13.406;2023-06-19T06:29:56;17.05;;;15.40;;
25962;SDS011;13760;52.588;13.406;2023-06-19T06:32:22;20.30;;;16.25;;
25962;SDS011;13760;52.588;13.406;2023-06-19T06:34:47;17.70;;;14.88;;
25962;SDS011;13760;52.588;13.406;2023-06-19T06:37:13;16.73;;;15.05;;
25962;SDS011;13760;52.588;13.406;2023-06-19T06:39:41;18.73;;;15.13;;
25962;SDS011;13760;52.588;13.406;2023-06-19T06:42:06;16.33;;;14.77;;
25962;SDS011;13760;52.588;13.406;2023-06-19T06:44:32;16.75;;;14.07;;
25962;SDS011;13760;52.588;13.406;2023-06-19T06:46:57;16.20;;;14.60;;
25962;SDS011;13760;52.588;13.406;2023-06-19T06:49:23;16.27;;;14.63;;
25962;SDS011;13760;52.588;13.406;2023-06-19T06:51:48;15.70;;;13.88;;
25962;SDS011;13760;52.588;13.406;2023-06-19T06:54:14;17.85;;;13.65;;
25962;SDS011;13760;52.588;13.406;2023-06-19T06:56:40;15.98;;;14.07;;
25962;SDS011;13760;52.588;13.406;2023-06-19T06:59:06;15.75;;;14.15;;
25962;SDS011;13760;52.588;13.406;2023-06-19T07:01:31;15.68;;;14.18;;
25962;SDS011;13760;52.588;13.406;2023-06-19T07:03:56;20.17;;;14.73;;
25962;SDS011;13760;52.588;13.406;2023-06-19T07:06:22;16.40;;;13.43;;
25962;SDS011;13760;52.588;13.406;2023-06-19T07:08:47;17.50;;;13.38;;
25962;SDS011;13760;52.588;13.406;2023-06-19T07:11:13;19.85;;;14.05;;
25962;SDS011;13760;52.588;13.406;2023-06-19T07:13:39;15.52;;;12.75;;
25962;SDS011;13760;52.588;13.406;2023-06-19T07:16:06;14.85;;;13.45;;
25962;SDS011;13760;52.588;13.406;2023-06-19T07:18:32;15.60;;;13.68;;
25962;SDS011;13760;52.588;13.406;2023-06-19T07:21:03;14.98;;;13.20;;
25962;SDS011;13760;52.588;13.406;2023-06-19T07:23:33;13.82;;;12.48;;
25962;SDS011;13760;52.588;13.406;2023-06-19T07:25:59;14.35;;;12.80;;
25962;SDS011;13760;52.588;13.406;2023-06-19T07:28:24;14.38;;;13.05;;
25962;SDS011;13760;52.588;13.406;2023-06-19T07:30:50;12.88;;;11.65;;
25962;SDS011;13760;52.588;13.406;2023-06-19T07:33:17;14.07;;;12.70;;
25962;SDS011;13760;52.588;13.406;2023-06-19T07:35:42;15.35;;;12.73;;
25962;SDS011;13760;52.588;13.406;2023-06-19T07:38:08;15.48;;;13.45;;
25962;SDS011;13760;52.588;13.406;2023-06-19T07:40:33;12.95;;;11.73;;
25962;SDS011;13760;52.588;13.406;2023-06-19T07:42:59;13.90;;;12.35;;
25962;SDS011;13760;52.588;13.406;2023-06-19T07:45:24;15.00;;;13.25;;
25962;SDS011;13760;52.588;13.406;2023-06-19T07:47:53;14.15;;;12.73;;
25962;SDS011;13760;52.588;13.406;2023-06-19T07:50:20;13.52;;;12.07;;
25962;SDS011;13760;52.588;13.406;2023-06-19T07:52:45;15.25;;;13.68;;
25962;SDS011;13760;52.588;13.406;2023-06-19T07:55:11;16.38;;;13.73;;
25962;SDS011;13760;52.588;13.406;2023-06-19T07:57:36;15.80;;;12.70;;
25962;SDS011;13760;52.588;13.406;2023-06-19T08:00:03;16.88;;;13.25;;
25962;SDS011;13760;52.588;13.406;2023-06-19T08:02:35;13.93;;;12.50;;
25962;SDS011;13760;52.588;13.406;2023-06-19T08:05:01;14.25;;;12.82;;
25962;SDS011;13760;52.588;13.406;2023-06-19T08:07:27;15.23;;;13.70;;
25962;SDS011;13760;52.588;13.406;2023-06-19T08:09:53;14.32;;;12.70;;
25962;SDS011;13760;52.588;13.406;2023-06-19T08:12:19;14.10;;;12.60;;
25962;SDS011;13760;52.588;13.406;2023-06-19T08:14:44;13.68;;;12.35;;
25962;SDS011;13760;52.588;13.406;2023-06-19T08:17:10;13.82;;;12.43;;
25962;SDS011;13760;52.588;13.406;2023-06-19T08:19:35;13.57;;;12.38;;
25962;SDS011;13760;52.588;13.406;2023-06-19T08:22:01;14.95;;;12.60;;
25962;SDS011;13760;52.588;13.406;2023-06-19T08:24:27;15.85;;;13.27;;
25962;SDS011;13760;52.588;13.406;2023-06-19T08:26:53;14.05;;;12.60;;
25962;SDS011;13760;52.588;13.406;2023-06-19T08:29:19;14.18;;;12.82;;
25962;SDS011;13760;52.588;13.406;2023-06-19T08:31:44;14.68;;;13.07;;
25962;SDS011;13760;52.588;13.406;2023-06-19T08:34:10;13.43;;;11.63;;
25962;SDS011;13760;52.588;13.406;2023-06-19T08:36:35;13.43;;;12.20;;
25962;SDS011;13760;52.588;13.406;2023-06-19T08:39:01;14.48;;;13.02;;
25962;SDS011;13760;52.588;13.406;2023-06-19T08:41:29;14.32;;;12.93;;
25962;SDS011;13760;52.588;13.406;2023-06-19T08:43:58;15.25;;;12.80;;
25962;SDS011;13760;52.588;13.406;2023-06-19T08:46:24;16.08;;;13.25;;
25962;SDS011;13760;52.588;13.406;2023-06-19T08:48:49;16.02;;;14.05;;
25962;SDS011;13760;52.588;13.406;2023-06-19T08:51:15;13.90;;;11.90;;
25962;SDS011;13760;52.588;13.406;2023-06-19T08:53:44;14.73;;;13.30;;
25962;SDS011;13760;52.588;13.406;2023-06-19T08:56:11;17.23;;;13.40;;
25962;SDS011;13760;52.588;13.406;2023-06-19T08:58:36;15.43;;;13.00;;
25962;SDS011;13760;52.588;13.406;2023-06-19T09:01:05;19.38;;;12.93;;
25962;SDS011;13760;52.588;13.406;2023-06-19T09:03:31;25.27;;;13.88;;
25962;SDS011;13760;52.588;13.406;2023-06-19T09:05:59;14.75;;;12.05;;
25962;SDS011;13760;52.588;13.406;2023-06-19T09:08:37;15.05;;;13.05;;
25962;SDS011;13760;52.588;13.406;2023-06-19T09:11:03;17.67;;;12.23;;
25962;SDS011;13760;52.588;13.406;2023-06-19T09:13:30;13.35;;;11.98;;
25962;SDS011;13760;52.588;13.406;2023-06-19T09:16:06;16.52;;;13.00;;
25962;SDS011;13760;52.588;13.406;2023-06-19T09:18:42;14.32;;;12.98;;
25962;SDS011;13760;52.588;13.406;2023-06-19T09:21:19;14.73;;;13.20;;
25962;SDS011;13760;52.588;13.406;2023-06-19T09:23:49;15.73;;;12.40;;
25962;SDS011;13760;52.588;13.406;2023-06-19T09:26:18;14.80;;;12.93;;
25962;SDS011;13760;52.588;13.406;2023-06-19T09:28:45;16.33;;;12.95;;
25962;SDS011;13760;52.588;13.406;2023-06-19T09:31:11;13.75;;;12.30;;
25962;SDS011;13760;52.588;13.406;2023-06-19T09:33:38;15.30;;;13.00;;
25962;SDS011;13760;52.588;13.406;2023-06-19T09:36:05;13.80;;;12.52;;
25962;SDS011;13760;52.588;13.406;2023-06-19T09:38:32;14.88;;;13.50;;
25962;SDS011;13760;52.588;13.406;2023-06-19T09:41:01;14.73;;;13.25;;
25962;SDS011;13760;52.588;13.406;2023-06-19T09:43:36;14.30;;;12.77;;
25962;SDS011;13760;52.588;13.406;2023-06-19T09:49:01;15.45;;;13.45;;
25962;SDS011;13760;52.588;13.406;2023-06-19T09:52:02;14.07;;;12.68;;
25962;SDS011;13760;52.588;13.406;2023-06-19T09:54:30;22.25;;;13.45;;
25962;SDS011;13760;52.588;13.406;2023-06-19T09:56:56;14.85;;;13.35;;
25962;SDS011;13760;52.588;13.406;2023-06-19T09:59:37;16.23;;;12.90;;
25962;SDS011;13760;52.588;13.406;2023-06-19T10:02:13;19.35;;;12.90;;
25962;SDS011;13760;52.588;13.406;2023-06-19T10:04:43;14.15;;;12.75;;
25962;SDS011;13760;52.588;13.406;2023-06-19T10:07:33;15.48;;;13.63;;
25962;SDS011;13760;52.588;13.406;2023-06-19T10:12:59;14.48;;;12.93;;
25962;SDS011;13760;52.588;13.406;2023-06-19T10:15:39;15.75;;;14.13;;
25962;SDS011;13760;52.588;13.406;2023-06-19T10:18:15;15.15;;;13.55;;
25962;SDS011;13760;52.588;13.406;2023-06-19T10:20:45;14.48;;;12.98;;
25962;SDS011;13760;52.588;13.406;2023-06-19T10:23:12;14.73;;;13.27;;
25962;SDS011;13760;52.588;13.406;2023-06-19T10:25:48;18.80;;;13.32;;
25962;SDS011;13760;52.588;13.406;2023-06-19T10:28:20;15.32;;;12.27;;
25962;SDS011;13760;52.588;13.406;2023-06-19T10:30:54;14.55;;;13.10;;
25962;SDS011;13760;52.588;13.406;2023-06-19T10:33:24;14.88;;;13.38;;
25962;SDS011;13760;52.588;13.406;2023-06-19T10:35:54;15.55;;;13.27;;
25962;SDS011;13760;52.588;13.406;2023-06-19T10:38:20;16.30;;;12.90;;
25962;SDS011;13760;52.588;13.406;2023-06-19T10:40:46;14.55;;;12.98;;
25962;SDS011;13760;52.588;13.406;2023-06-19T10:43:13;16.23;;;13.68;;
25962;SDS011;13760;52.588;13.406;2023-06-19T10:45:45;15.65;;;12.90;;
25962;SDS011;13760;52.588;13.406;2023-06-19T10:48:10;15.70;;;13.25;;
25962;SDS011;13760;52.588;13.406;2023-06-19T10:50:41;14.45;;;13.02;;
25962;SDS011;13760;52.588;13.406;2023-06-19T10:55:33;14.13;;;12.20;;
25962;SDS011;13760;52.588;13.406;2023-06-19T10:57:58;13.88;;;12.48;;
25962;SDS011;13760;52.588;13.406;2023-06-19T11:00:25;14.68;;;12.23;;
25962;SDS011;13760;52.588;13.406;2023-06-19T11:02:56;14.52;;;13.00;;
25962;SDS011;13760;52.588;13.406;2023-06-19T11:05:23;13.80;;;12.02;;
25962;SDS011;13760;52.588;13.406;2023-06-19T11:07:50;13.45;;;12.07;;
25962;SDS011;13760;52.588;13.406;2023-06-19T11:10:24;11.93;;;10.82;;
25962;SDS011;13760;52.588;13.406;2023-06-19T11:12:54;13.40;;;10.85;;
25962;SDS011;13760;52.588;13.406;2023-06-19T11:15:30;13.43;;;11.65;;
25962;SDS011;13760;52.588;13.406;2023-06-19T11:17:57;18.45;;;11.98;;
25962;SDS011;13760;52.588;13.406;2023-06-19T11:20:24;12.52;;;11.32;;
25962;SDS011;13760;52.588;13.406;2023-06-19T11:22:54;14.52;;;11.63;;
25962;SDS011;13760;52.588;13.406;2023-06-19T11:25:34;12.88;;;11.60;;
25962;SDS011;13760;52.588;13.406;2023-06-19T11:28:04;14.45;;;11.55;;
25962;SDS011;13760;52.588;13.406;2023-06-19T11:30:35;11.63;;;10.52;;
25962;SDS011;13760;52.588;13.406;2023-06-19T11:33:00;15.55;;;10.50;;
25962;SDS011;13760;52.588;13.406;2023-06-19T11:35:32;11.50;;;10.40;;
25962;SDS011;13760;52.588;13.406;2023-06-19T11:38:01;10.93;;;9.82;;
25962;SDS011;13760;52.588;13.406;2023-06-19T11:40:28;10.55;;;9.65;;
25962;SDS011;13760;52.588;13.406;2023-06-19T11:42:54;12.15;;;9.75;;
25962;SDS011;13760;52.588;13.406;2023-06-19T11:45:20;10.40;;;8.95;;
25962;SDS011;13760;52.588;13.406;2023-06-19T11:47:46;11.70;;;9.40;;
25962;SDS011;13760;52.588;13.406;2023-06-19T11:50:14;11.07;;;10.05;;
25962;SDS011;13760;52.588;13.406;2023-06-19T11:52:41;11.35;;;9.73;;
25962;SDS011;13760;52.588;13.406;2023-06-19T11:55:08;13.18;;;10.00;;
25962;SDS011;13760;52.588;13.406;2023-06-19T11:57:34;11.80;;;10.07;;
25962;SDS011;13760;52.588;13.406;2023-06-19T12:00:00;11.45;;;9.77;;
25962;SDS011;13760;52.588;13.406;2023-06-19T12:02:25;14.85;;;10.15;;
25962;SDS011;13760;52.588;13.406;2023-06-19T12:04:51;11.27;;;9.80;;
25962;SDS011;13760;52.588;13.406;2023-06-19T12:07:17;12.13;;;10.20;;
25962;SDS011;13760;52.588;13.406;2023-06-19T12:09:46;10.80;;;9.80;;
25962;SDS011;13760;52.588;13.406;2023-06-19T12:12:11;11.32;;;10.32;;
25962;SDS011;13760;52.588;13.406;2023-06-19T12:14:37;10.27;;;9.15;;
25962;SDS011;13760;52.588;13.406;2023-06-19T12:17:06;11.25;;;9.85;;
25962;SDS011;13760;52.588;13.406;2023-06-19T12:19:31;10.65;;;9.57;;
25962;SDS011;13760;52.588;13.406;2023-06-19T12:21:59;10.82;;;9.50;;
25962;SDS011;13760;52.588;13.406;2023-06-19T12:24:24;10.40;;;9.32;;
25962;SDS011;13760;52.588;13.406;2023-06-19T12:26:50;10.85;;;9.38;;
25962;SDS011;13760;52.588;13.406;2023-06-19T12:29:15;9.88;;;8.98;;
25962;SDS011;13760;52.588;13.406;2023-06-19T12:31:42;10.45;;;9.35;;
25962;SDS011;13760;52.588;13.406;2023-06-19T12:34:11;10.52;;;9.48;;
25962;SDS011;13760;52.588;13.406;2023-06-19T12:36:37;10.00;;;9.10;;
25962;SDS011;13760;52.588;13.406;2023-06-19T12:39:02;10.95;;;9.85;;
25962;SDS011;13760;52.588;13.406;2023-06-19T12:41:31;11.27;;;10.13;;
25962;SDS011;13760;52.588;13.406;2023-06-19T12:43:56;11.07;;;9.68;;
25962;SDS011;13760;52.588;13.406;2023-06-19T12:46:24;10.45;;;9.25;;
25962;SDS011;13760;52.588;13.406;2023-06-19T12:48:50;11.05;;;9.40;;
25962;SDS011;13760;52.588;13.406;2023-06-19T12:51:16;9.48;;;8.50;;
25962;SDS011;13760;52.588;13.406;2023-06-19T12:53:43;9.57;;;8.57;;
25962;SDS011;13760;52.588;13.406;2023-06-19T12:56:08;11.15;;;9.20;;
25962;SDS011;13760;52.588;13.406;2023-06-19T12:58:37;11.80;;;9.35;;
25962;SDS011;13760;52.588;13.406;2023-06-19T13:01:02;9.38;;;8.48;;
25962;SDS011;13760;52.588;13.406;2023-06-19T13:03:28;10.38;;;9.32;;
25962;SDS011;13760;52.588;13.406;2023-06-19T13:05:53;9.85;;;8.93;;
25962;SDS011;13760;52.588;13.406;2023-06-19T13:08:19;10.27;;;9.27;;
25962;SDS011;13760;52.588;13.406;2023-06-19T13:10:44;10.18;;;9.18;;
25962;SDS011;13760;52.588;13.406;2023-06-19T13:13:10;9.68;;;8.68;;
25962;SDS011;13760;52.588;13.406;2023-06-19T13:15:36;9.95;;;9.05;;
25962;SDS011;13760;52.588;13.406;2023-06-19T13:18:02;9.85;;;8.32;;
25962;SDS011;13760;52.588;13.406;2023-06-19T13:20:27;9.50;;;8.65;;
25962;SDS011;13760;52.588;13.406;2023-06-19T13:22:53;11.20;;;7.78;;
25962;SDS011;13760;52.588;13.406;2023-06-19T13:25:19;9.63;;;8.73;;
25962;SDS011;13760;52.588;13.406;2023-06-19T13:27:45;14.63;;;8.68;;
25962;SDS011;13760;52.588;13.406;2023-06-19T13:30:11;9.40;;;8.60;;
25962;SDS011;13760;52.588;13.406;2023-06-19T13:32:37;9.43;;;8.57;;
25962;SDS011;13760;52.588;13.406;2023-06-19T13:35:03;10.27;;;8.80;;
25962;SDS011;13760;52.588;13.406;2023-06-19T13:37:29;10.65;;;8.65;;
25962;SDS011;13760;52.588;13.406;2023-06-19T13:39:55;9.98;;;9.00;;
25962;SDS011;13760;52.588;13.406;2023-06-19T13:42:20;9.82;;;8.60;;
25962;SDS011;13760;52.588;13.406;2023-06-19T13:44:46;9.70;;;8.75;;
25962;SDS011;13760;52.588;13.406;2023-06-19T13:47:11;8.85;;;7.95;;
25962;SDS011;13760;52.588;13.406;2023-06-19T13:49:37;9.55;;;8.60;;
25962;SDS011;13760;52.588;13.406;2023-06-19T13:52:03;9.98;;;8.18;;
25962;SDS011;13760;52.588;13.406;2023-06-19T13:54:28;8.70;;;7.85;;
25962;SDS011;13760;52.588;13.406;2023-06-19T13:56:54;9.15;;;8.25;;
25962;SDS011;13760;52.588;13.406;2023-06-19T13:59:19;9.27;;;8.07;;
25962;SDS011;13760;52.588;13.406;2023-06-19T14:01:45;11.60;;;8.20;;
25962;SDS011;13760;52.588;13.406;2023-06-19T14:04:11;9.10;;;8.27;;
25962;SDS011;13760;52.588;13.406;2023-06-19T14:06:37;10.18;;;8.70;;
25962;SDS011;13760;52.588;13.406;2023-06-19T14:09:03;9.32;;;8.40;;
25962;SDS011;13760;52.588;13.406;2023-06-19T14:11:29;9.35;;;8.43;;
25962;SDS011;13760;52.588;13.406;2023-06-19T14:13:54;9.60;;;8.23;;
25962;SDS011;13760;52.588;13.406;2023-06-19T14:16:20;10.27;;;8.43;;
25962;SDS011;13760;52.588;13.406;2023-06-19T14:18:46;9.07;;;8.18;;
25962;SDS011;13760;52.588;13.406;2023-06-19T14:21:12;11.00;;;8.10;;
25962;SDS011;13760;52.588;13.406;2023-06-19T14:23:40;9.68;;;8.50;;